createdAt,value
2024-02-19T00:02:14.940Z,74.86
2024-02-19T00:04:41.670Z,74.09
2024-02-19T00:07:08.176Z,74.29
2024-02-19T00:09:34.585Z,72.12
2024-02-19T00:12:01.103Z,72.84
2024-02-19T00:14:27.580Z,72.24
2024-02-19T00:16:53.961Z,71.18
2024-02-19T00:19:20.683Z,71.48
2024-02-19T00:21:47.384Z,71.49
2024-02-19T00:24:15.169Z,71.21
2024-02-19T00:26:41.542Z,71.65
2024-02-19T00:29:07.909Z,71.86
2024-02-19T00:31:34.292Z,70.91
2024-02-19T00:34:00.982Z,71.12
2024-02-19T00:36:27.678Z,70.00
2024-02-19T00:38:54.124Z,69.18
2024-02-19T00:41:20.583Z,71.20
2024-02-19T00:43:46.993Z,71.03
2024-02-19T00:46:13.524Z,71.84
2024-02-19T00:48:40.577Z,71.21
2024-02-19T00:51:07.403Z,73.80
2024-02-19T00:53:33.805Z,72.58
2024-02-19T00:56:00.287Z,72.21
2024-02-19T00:58:26.712Z,74.18
2024-02-19T01:00:53.333Z,74.05
2024-02-19T01:03:19.782Z,75.71
2024-02-19T01:05:46.256Z,73.88
2024-02-19T01:08:12.605Z,72.86
2024-02-19T01:10:39.059Z,72.24
2024-02-19T01:13:05.706Z,73.40
2024-02-19T01:15:32.180Z,71.20
2024-02-19T01:17:58.617Z,71.86
2024-02-19T01:20:25.087Z,72.67
2024-02-19T01:22:51.481Z,74.64
2024-02-19T01:25:18.877Z,75.69
2024-02-19T01:27:45.544Z,77.07
2024-02-19T01:30:12.684Z,77.96
2024-02-19T01:32:39.248Z,78.23
2024-02-19T01:35:07.151Z,77.42
2024-02-19T01:37:33.794Z,75.04
2024-02-19T01:40:00.434Z,76.93
2024-02-19T01:42:27.074Z,77.41
2024-02-19T01:44:53.703Z,76.13
2024-02-19T01:47:20.406Z,76.58
2024-02-19T01:49:47.180Z,77.39
2024-02-19T01:52:13.894Z,76.21
2024-02-19T01:54:40.893Z,75.44
2024-02-19T01:57:08.620Z,77.92
2024-02-19T01:59:35.681Z,77.86
2024-02-19T02:02:03.838Z,77.42
2024-02-19T02:04:30.538Z,74.88
2024-02-19T02:06:58.653Z,77.16
2024-02-19T02:09:25.389Z,78.39
2024-02-19T02:11:52.042Z,77.76
2024-02-19T02:14:18.871Z,77.23
2024-02-19T02:16:45.497Z,78.66
2024-02-19T02:19:14.014Z,80.60
2024-02-19T02:21:40.879Z,77.93
2024-02-19T02:24:07.427Z,75.25
2024-02-19T02:26:38.832Z,75.63
2024-02-19T02:29:05.381Z,75.51
2024-02-19T02:31:31.944Z,78.18
2024-02-19T02:33:59.127Z,79.75
2024-02-19T02:36:25.853Z,79.42
2024-02-19T02:38:52.444Z,78.44
2024-02-19T02:41:19.043Z,76.59
2024-02-19T02:43:45.918Z,76.77
2024-02-19T02:46:12.590Z,77.18
2024-02-19T02:48:39.307Z,73.42
2024-02-19T02:51:06.088Z,75.50
2024-02-19T02:53:32.686Z,75.17
2024-02-19T02:55:59.273Z,74.71
2024-02-19T02:58:25.818Z,75.80
2024-02-19T03:00:52.458Z,76.61
2024-02-19T03:03:19.085Z,75.51
2024-02-19T03:05:45.685Z,76.58
2024-02-19T03:08:12.249Z,75.91
2024-02-19T03:10:38.790Z,78.16
2024-02-19T03:13:05.409Z,76.87
2024-02-19T03:15:31.952Z,78.32
2024-02-19T03:17:58.820Z,76.80
2024-02-19T03:20:25.637Z,77.46
2024-02-19T03:22:52.261Z,78.22
2024-02-19T03:25:18.962Z,79.39
2024-02-19T03:27:45.584Z,79.02
2024-02-19T03:30:13.444Z,77.11
2024-02-19T03:32:40.112Z,75.02
2024-02-19T03:35:08.980Z,75.91
2024-02-19T03:37:35.685Z,75.92
2024-02-19T03:40:02.573Z,73.69
2024-02-19T03:42:29.023Z,73.60
2024-02-19T03:44:55.379Z,74.08
2024-02-19T03:47:21.806Z,74.12
2024-02-19T03:49:48.398Z,74.77
2024-02-19T03:52:14.811Z,75.62
2024-02-19T03:54:41.475Z,76.26
2024-02-19T03:57:07.899Z,76.07
2024-02-19T03:59:34.305Z,76.09
2024-02-19T04:02:00.945Z,76.45
2024-02-19T04:04:27.573Z,77.40
2024-02-19T04:06:54.096Z,76.97
2024-02-19T04:09:20.839Z,74.90
2024-02-19T04:11:47.275Z,75.50
2024-02-19T04:14:13.744Z,75.87
2024-02-19T04:16:43.243Z,75.03
2024-02-19T04:19:09.852Z,74.37
2024-02-19T04:21:43.574Z,77.67
2024-02-19T04:24:13.090Z,79.00
2024-02-19T04:26:40.161Z,79.38
2024-02-19T04:29:08.468Z,78.93
2024-02-19T04:31:35.308Z,79.69
2024-02-19T04:34:02.221Z,79.87
2024-02-19T04:36:29.064Z,79.54
2024-02-19T04:38:55.893Z,79.69
2024-02-19T04:41:22.521Z,79.47
2024-02-19T04:43:49.138Z,77.78
2024-02-19T04:46:15.833Z,78.28
2024-02-19T04:48:42.618Z,77.19
2024-02-19T04:51:09.306Z,76.94
2024-02-19T04:53:35.985Z,77.75
2024-02-19T04:56:02.619Z,77.60
2024-02-19T04:58:29.230Z,78.33
2024-02-19T05:00:55.890Z,78.29
2024-02-19T05:03:22.561Z,79.31
2024-02-19T05:05:49.138Z,79.06
2024-02-19T05:08:15.851Z,78.65
2024-02-19T05:10:42.422Z,77.12
2024-02-19T05:13:09.144Z,78.51
2024-02-19T05:15:35.734Z,79.07
2024-02-19T05:18:02.396Z,79.63
2024-02-19T05:20:29.152Z,80.18
2024-02-19T05:22:55.717Z,81.52
2024-02-19T05:25:22.439Z,81.26
2024-02-19T05:27:49.165Z,81.93
2024-02-19T05:30:15.761Z,81.28
2024-02-19T05:32:42.399Z,80.12
2024-02-19T05:35:09.079Z,80.82
2024-02-19T05:37:35.737Z,79.39
2024-02-19T05:40:02.646Z,78.63
2024-02-19T05:42:29.432Z,79.95
2024-02-19T05:44:55.942Z,80.43
2024-02-19T05:47:22.606Z,78.44
2024-02-19T05:49:49.285Z,78.84
2024-02-19T05:52:15.946Z,79.39
2024-02-19T05:54:42.559Z,79.42
2024-02-19T05:57:09.137Z,79.20
2024-02-19T05:59:35.730Z,79.79
2024-02-19T06:02:02.436Z,79.50
2024-02-19T06:04:29.184Z,77.52
2024-02-19T06:06:55.884Z,78.20
2024-02-19T06:09:22.884Z,78.89
2024-02-19T06:11:49.243Z,79.75
2024-02-19T06:14:15.762Z,80.90
2024-02-19T06:16:42.319Z,81.33
2024-02-19T06:19:08.816Z,81.98
2024-02-19T06:21:35.741Z,81.36
2024-02-19T06:24:02.245Z,80.73
2024-02-19T06:26:28.877Z,80.13
2024-02-19T06:28:55.409Z,81.63
2024-02-19T06:31:21.886Z,80.72
2024-02-19T06:33:48.629Z,80.33
2024-02-19T06:36:15.697Z,80.35
2024-02-19T06:38:42.154Z,80.34
2024-02-19T06:41:08.616Z,80.17
2024-02-19T06:43:35.017Z,79.85
2024-02-19T06:46:01.627Z,79.95
2024-02-19T06:48:28.147Z,80.25
2024-02-19T06:50:54.757Z,81.29
2024-02-19T06:53:21.261Z,81.20
2024-02-19T06:59:00.021Z,82.21
2024-02-19T07:01:54.650Z,81.91
2024-02-19T07:04:21.830Z,83.12
2024-02-19T07:07:49.672Z,83.30
2024-02-19T07:10:26.697Z,81.60
2024-02-19T07:13:30.389Z,82.00
2024-02-19T07:16:04.402Z,80.12
2024-02-19T07:18:54.554Z,80.56
2024-02-19T07:39:16.691Z,81.69
2024-02-19T07:41:43.261Z,79.34
2024-02-19T07:44:19.116Z,80.47
2024-02-19T07:47:03.383Z,79.70
2024-02-19T07:49:43.513Z,79.60
2024-02-19T07:52:20.290Z,79.14
2024-02-19T07:54:47.187Z,80.42
2024-02-19T07:57:25.013Z,80.20
2024-02-19T08:00:11.040Z,79.13
2024-02-19T08:02:38.565Z,77.54
2024-02-19T08:05:11.779Z,76.76
2024-02-19T08:07:38.801Z,76.62
2024-02-19T08:10:09.766Z,75.83
2024-02-19T08:12:41.644Z,76.49
2024-02-19T08:15:10.494Z,78.34
2024-02-19T08:17:37.548Z,77.60
2024-02-19T08:20:08.795Z,77.02
2024-02-19T08:22:36.359Z,75.45
2024-02-19T08:25:03.543Z,73.70
2024-02-19T08:27:30.615Z,73.64
2024-02-19T08:29:57.351Z,74.02
2024-02-19T08:32:24.179Z,74.22
2024-02-19T08:34:50.945Z,77.85
2024-02-19T08:37:17.521Z,80.20
2024-02-19T08:39:45.271Z,79.90
2024-02-19T08:45:24.270Z,77.99
2024-02-19T08:50:46.245Z,78.68
2024-02-19T08:53:13.568Z,78.70
2024-02-19T08:55:43.438Z,76.03
2024-02-19T08:58:10.709Z,75.39
2024-02-19T09:00:41.367Z,74.53
2024-02-19T09:03:08.296Z,73.35
2024-02-19T09:05:38.151Z,73.05
2024-02-19T09:08:12.292Z,71.56
2024-02-19T09:10:39.228Z,71.81
2024-02-19T09:13:10.761Z,71.27
2024-02-19T09:15:37.580Z,71.09
2024-02-19T09:18:18.554Z,70.62
2024-02-19T09:20:47.712Z,70.40
2024-02-19T09:23:14.218Z,70.17
2024-02-19T09:25:40.660Z,70.88
2024-02-19T09:28:07.266Z,72.75
2024-02-19T09:30:34.046Z,73.92
2024-02-19T09:33:00.876Z,74.59
2024-02-19T09:35:27.414Z,75.80
2024-02-19T09:37:53.981Z,76.63
2024-02-19T09:40:21.973Z,75.65
2024-02-19T09:42:49.558Z,75.68
2024-02-19T09:45:16.070Z,74.63
2024-02-19T09:47:45.508Z,74.45
2024-02-19T09:50:13.952Z,73.29
2024-02-19T09:52:44.904Z,73.02
2024-02-19T09:55:11.457Z,72.58
2024-02-19T09:57:38.294Z,72.00
2024-02-19T10:00:05.301Z,71.52
2024-02-19T10:02:32.089Z,70.89
2024-02-19T10:04:58.856Z,71.84
2024-02-19T10:07:26.021Z,70.92
2024-02-19T10:09:52.663Z,70.30
2024-02-19T10:12:19.435Z,69.88
2024-02-19T10:14:46.311Z,69.28
2024-02-19T10:17:13.006Z,67.12
2024-02-19T10:19:40.018Z,66.92
2024-02-19T10:22:08.925Z,65.84
2024-02-19T10:24:37.151Z,62.54
2024-02-19T10:27:04.059Z,61.46
2024-02-19T10:29:30.595Z,61.68
2024-02-19T10:31:57.405Z,61.90
2024-02-19T10:34:24.301Z,60.94
2024-02-19T10:36:51.001Z,60.81
2024-02-19T10:39:17.779Z,59.99
2024-02-19T10:41:44.503Z,59.56
2024-02-19T10:44:11.379Z,64.52
2024-02-19T10:46:39.086Z,64.74
2024-02-19T10:49:05.948Z,65.48
2024-02-19T10:51:32.804Z,64.96
2024-02-19T10:54:01.773Z,65.54
2024-02-19T10:56:40.004Z,64.79
2024-02-19T10:59:11.465Z,64.24
2024-02-19T11:01:39.054Z,64.33
2024-02-19T11:04:18.020Z,65.13
2024-02-19T11:06:59.030Z,64.99
2024-02-19T11:09:32.317Z,64.86
2024-02-19T11:12:01.175Z,64.48
2024-02-19T11:14:30.014Z,64.61
2024-02-19T11:16:56.486Z,65.47
2024-02-19T11:19:23.105Z,64.25
2024-02-19T11:21:50.241Z,64.22
2024-02-19T11:24:19.921Z,64.72
2024-02-19T11:26:46.880Z,64.17
2024-02-19T11:29:17.628Z,63.77
2024-02-19T11:31:44.588Z,64.03
2024-02-19T11:34:19.674Z,62.09
2024-02-19T11:36:47.375Z,62.69
2024-02-19T11:39:14.009Z,62.40
2024-02-19T11:41:44.477Z,62.88
2024-02-19T11:44:12.016Z,62.65
2024-02-19T11:46:38.765Z,63.13
2024-02-19T11:49:05.375Z,63.04
2024-02-19T11:51:32.084Z,61.17
2024-02-19T11:53:58.753Z,61.25
2024-02-19T11:56:25.122Z,60.45
2024-02-19T11:58:53.043Z,61.04
2024-02-19T12:01:21.218Z,61.47
2024-02-19T12:03:48.331Z,61.02
2024-02-19T12:06:14.749Z,60.68
2024-02-19T12:08:41.249Z,60.63
2024-02-19T12:11:07.890Z,60.76
2024-02-19T12:13:34.775Z,60.57
2024-02-19T12:16:01.637Z,61.00
2024-02-19T12:18:28.213Z,60.21
2024-02-19T12:20:54.896Z,59.75
2024-02-19T12:23:21.755Z,59.59
2024-02-19T12:25:48.186Z,59.09
2024-02-19T12:28:14.745Z,59.13
2024-02-19T12:30:41.298Z,59.77
2024-02-19T12:33:08.902Z,59.02
2024-02-19T12:35:37.625Z,59.59
2024-02-19T12:38:05.548Z,60.56
2024-02-19T12:40:32.180Z,59.43
2024-02-19T12:42:58.878Z,59.41
2024-02-19T12:45:25.299Z,57.35
2024-02-19T12:47:51.870Z,61.62
2024-02-19T12:50:18.627Z,64.16
2024-02-19T12:52:45.488Z,63.78
2024-02-19T12:55:13.766Z,62.73
2024-02-19T12:57:41.418Z,61.63
2024-02-19T13:00:08.520Z,61.84
2024-02-19T13:02:35.629Z,60.54
2024-02-19T13:05:02.134Z,59.77
2024-02-19T13:07:28.788Z,58.78
2024-02-19T13:09:55.273Z,57.58
2024-02-19T13:12:21.874Z,56.63
2024-02-19T13:14:48.480Z,57.53
2024-02-19T13:17:16.977Z,56.22
2024-02-19T13:19:48.569Z,56.22
2024-02-19T13:22:16.163Z,55.29
2024-02-19T13:24:42.945Z,56.23
2024-02-19T13:27:09.651Z,55.88
2024-02-19T13:29:36.405Z,56.18
2024-02-19T13:32:03.320Z,57.41
2024-02-19T13:34:29.952Z,56.66
2024-02-19T13:36:56.804Z,57.03
2024-02-19T13:39:23.539Z,57.47
2024-02-19T13:41:50.492Z,56.20
2024-02-19T13:44:17.132Z,55.66
2024-02-19T13:46:43.675Z,54.95
2024-02-19T13:49:10.268Z,55.52
2024-02-19T13:51:36.809Z,55.81
2024-02-19T13:54:03.376Z,55.30
2024-02-19T13:56:29.981Z,55.67
2024-02-19T13:58:56.404Z,51.79
2024-02-19T14:01:22.963Z,54.62
2024-02-19T14:03:49.838Z,54.76
2024-02-19T14:06:16.595Z,54.52
2024-02-19T14:08:45.908Z,53.86
2024-02-19T14:11:12.346Z,53.72
2024-02-19T14:13:46.587Z,53.80
2024-02-19T14:16:21.202Z,54.20
2024-02-19T14:18:47.830Z,55.11
2024-02-19T14:21:14.553Z,55.00
2024-02-19T14:23:41.326Z,54.79
2024-02-19T14:26:07.887Z,54.29
2024-02-19T14:28:34.397Z,52.66
2024-02-19T14:31:00.990Z,51.48
2024-02-19T14:33:28.274Z,50.78
2024-02-19T14:35:54.859Z,48.39
2024-02-19T14:38:21.546Z,48.49
2024-02-19T14:40:48.234Z,49.49
2024-02-19T14:43:15.120Z,47.92
2024-02-19T14:45:41.782Z,47.92
2024-02-19T14:48:09.022Z,47.47
2024-02-19T14:50:35.885Z,48.25
2024-02-19T14:53:02.766Z,47.88
2024-02-19T14:55:29.510Z,47.71
2024-02-19T14:57:56.523Z,48.00
2024-02-19T15:00:23.318Z,47.26
2024-02-19T15:02:50.232Z,46.28
2024-02-19T15:05:16.818Z,44.70
2024-02-19T15:07:43.727Z,43.97
2024-02-19T15:10:10.632Z,43.71
2024-02-19T15:12:37.312Z,42.58
2024-02-19T15:15:04.591Z,41.93
2024-02-19T15:17:31.182Z,42.24
2024-02-19T15:19:57.775Z,42.86
2024-02-19T15:22:24.294Z,43.16
2024-02-19T15:24:50.828Z,43.67
2024-02-19T15:27:17.321Z,44.57
2024-02-19T15:29:43.675Z,45.03
2024-02-19T15:32:10.117Z,46.35
2024-02-19T15:34:36.713Z,46.82
2024-02-19T15:37:03.321Z,47.40
2024-02-19T15:39:29.959Z,48.15
2024-02-19T15:41:56.372Z,47.85
2024-02-19T15:44:22.777Z,48.35
2024-02-19T15:46:49.217Z,48.77
2024-02-19T15:49:15.834Z,48.56
2024-02-19T15:51:42.496Z,48.68
2024-02-19T15:54:09.135Z,47.77
2024-02-19T15:56:35.797Z,48.41
2024-02-19T15:59:02.489Z,48.39
2024-02-19T16:01:29.287Z,49.35
2024-02-19T16:03:55.966Z,49.94
2024-02-19T16:06:22.716Z,49.92
2024-02-19T16:08:49.357Z,49.90
2024-02-19T16:11:15.839Z,50.15
2024-02-19T16:13:42.366Z,51.81
2024-02-19T16:16:09.188Z,52.51
2024-02-19T16:18:37.593Z,51.91
2024-02-19T16:21:05.606Z,51.93
2024-02-19T16:23:32.908Z,53.34
2024-02-19T16:25:59.893Z,55.29
2024-02-19T16:28:26.781Z,55.48
2024-02-19T16:30:53.440Z,53.51
2024-02-19T16:33:20.017Z,53.58
2024-02-19T16:35:46.753Z,53.73
2024-02-19T16:38:13.609Z,53.95
2024-02-19T16:40:40.118Z,54.96
2024-02-19T16:43:06.763Z,54.56
2024-02-19T16:45:33.818Z,54.93
2024-02-19T16:48:05.346Z,56.23
2024-02-19T16:50:32.698Z,56.22
2024-02-19T16:52:59.569Z,56.17
2024-02-19T16:55:26.351Z,55.02
2024-02-19T16:57:53.033Z,55.37
2024-02-19T17:00:20.003Z,55.44
2024-02-19T17:02:46.671Z,56.36
2024-02-19T17:05:13.724Z,55.92
2024-02-19T17:07:40.761Z,56.77
2024-02-19T17:10:07.948Z,58.11
2024-02-19T17:12:34.638Z,58.37
2024-02-19T17:15:01.262Z,57.51
2024-02-19T17:17:28.051Z,57.73
2024-02-19T17:19:55.438Z,58.17
2024-02-19T17:22:22.412Z,57.08
2024-02-19T17:24:49.317Z,56.86
2024-02-19T17:27:15.997Z,57.63
2024-02-19T17:29:43.428Z,58.84
2024-02-19T17:32:10.111Z,59.12
2024-02-19T17:34:37.128Z,58.66
2024-02-19T17:37:03.986Z,58.98
2024-02-19T17:39:30.755Z,59.00
2024-02-19T17:41:57.925Z,57.54
2024-02-19T17:44:24.705Z,57.76
2024-02-19T17:46:53.036Z,58.67
2024-02-19T17:49:19.926Z,58.68
2024-02-19T17:51:46.563Z,58.71
2024-02-19T17:54:13.094Z,60.87
2024-02-19T17:56:39.589Z,61.13
2024-02-19T17:59:10.787Z,60.96
2024-02-19T18:01:39.046Z,61.77
2024-02-19T18:04:05.668Z,62.07
2024-02-19T18:06:33.668Z,62.52
2024-02-19T18:09:01.436Z,63.09
2024-02-19T18:11:27.903Z,63.16
2024-02-19T18:13:54.381Z,63.12
2024-02-19T18:16:22.161Z,63.21
2024-02-19T18:18:49.541Z,62.82
2024-02-19T18:21:16.253Z,63.00
2024-02-19T18:23:43.043Z,62.98
2024-02-19T18:26:09.562Z,62.99
2024-02-19T18:28:36.412Z,62.75
2024-02-19T18:31:03.896Z,63.26
2024-02-19T18:33:31.273Z,62.48
2024-02-19T18:35:57.804Z,63.24
2024-02-19T18:38:24.626Z,64.99
2024-02-19T18:40:51.019Z,67.14
2024-02-19T18:43:17.441Z,67.20
2024-02-19T18:45:43.964Z,68.41
2024-02-19T18:48:10.841Z,69.66
2024-02-19T18:50:38.300Z,69.75
2024-02-19T18:53:04.949Z,69.48
2024-02-19T18:55:31.634Z,68.94
2024-02-19T18:57:58.303Z,69.23
2024-02-19T19:00:24.898Z,69.78
2024-02-19T19:02:51.472Z,71.05
2024-02-19T19:05:18.170Z,71.07
2024-02-19T19:07:44.809Z,70.90
2024-02-19T19:10:11.442Z,70.63
2024-02-19T19:12:37.868Z,69.59
2024-02-19T19:15:04.915Z,69.77
2024-02-19T19:17:31.534Z,69.17
2024-02-19T19:19:58.090Z,68.84
2024-02-19T19:22:24.642Z,68.85
2024-02-19T19:24:51.207Z,68.04
2024-02-19T19:27:17.807Z,67.48
2024-02-19T19:29:44.254Z,66.86
2024-02-19T19:32:10.786Z,67.05
2024-02-19T19:34:37.292Z,66.67
2024-02-19T19:37:04.064Z,66.96
2024-02-19T19:39:30.561Z,66.77
2024-02-19T19:41:56.965Z,65.55
2024-02-19T19:44:23.413Z,65.45
2024-02-19T19:46:49.921Z,65.18
2024-02-19T19:49:16.395Z,65.31
2024-02-19T19:51:43.749Z,64.85
2024-02-19T19:54:10.563Z,64.87
2024-02-19T19:56:37.223Z,63.39
2024-02-19T19:59:03.855Z,64.16
2024-02-19T20:01:34.724Z,63.89
2024-02-19T20:04:01.299Z,63.91
2024-02-19T20:06:28.669Z,63.55
2024-02-19T20:08:56.040Z,62.52
2024-02-19T20:11:23.733Z,64.14
2024-02-19T20:13:51.716Z,63.20
2024-02-19T20:18:51.453Z,62.77
2024-02-19T20:21:18.516Z,61.90
2024-02-19T20:23:47.905Z,62.40
2024-02-19T20:28:49.852Z,59.51
2024-02-19T20:31:16.669Z,60.46
2024-02-19T20:33:43.544Z,61.91
2024-02-19T20:36:12.185Z,61.38
2024-02-19T20:38:38.822Z,61.89
2024-02-19T20:41:05.385Z,62.34
2024-02-19T20:43:32.068Z,62.78
2024-02-19T20:45:58.652Z,63.96
2024-02-19T20:48:25.492Z,64.11
2024-02-19T20:50:52.391Z,66.33
2024-02-19T20:53:18.862Z,68.48
2024-02-19T20:55:45.472Z,67.88
2024-02-19T20:58:12.357Z,71.23
2024-02-19T21:00:39.071Z,73.03
2024-02-19T21:14:37.833Z,83.86
2024-02-19T21:17:04.832Z,88.05
2024-02-19T21:19:31.772Z,92.58
2024-02-19T21:21:58.341Z,93.36
2024-02-19T21:24:25.028Z,95.43
2024-02-19T21:29:25.680Z,92.55
2024-02-19T21:31:52.302Z,95.37
2024-02-19T21:34:18.810Z,88.41
2024-02-19T21:36:45.293Z,86.69
2024-02-19T21:39:12.093Z,84.45
2024-02-19T21:41:38.772Z,82.15
2024-02-19T21:44:06.186Z,84.73
2024-02-19T21:46:32.939Z,84.15
2024-02-19T21:48:59.480Z,80.84
2024-02-19T21:51:26.270Z,79.86
2024-02-19T21:53:52.950Z,81.15
2024-02-19T21:56:19.839Z,81.85
2024-02-19T21:58:47.590Z,81.68
2024-02-19T22:01:14.878Z,80.98
2024-02-19T22:03:44.874Z,80.23
2024-02-19T22:06:11.691Z,79.76
2024-02-19T22:08:38.454Z,80.22
2024-02-19T22:11:05.159Z,80.22
2024-02-19T22:13:31.894Z,80.02
2024-02-19T22:15:58.601Z,78.91
2024-02-19T22:18:25.702Z,79.43
2024-02-19T22:20:53.006Z,79.37
2024-02-19T22:23:19.771Z,78.79
2024-02-19T22:25:46.522Z,77.97
2024-02-19T22:28:13.232Z,76.38
2024-02-19T22:30:39.923Z,75.69
2024-02-19T22:33:06.356Z,76.62
2024-02-19T22:35:32.906Z,76.06
2024-02-19T22:37:59.316Z,76.93
2024-02-19T22:40:25.793Z,76.11
2024-02-19T22:42:52.431Z,75.40
2024-02-19T22:45:19.025Z,74.95
2024-02-19T22:47:45.440Z,73.86
2024-02-19T22:50:11.980Z,72.10
2024-02-19T22:52:43.446Z,74.98
2024-02-19T22:55:11.076Z,76.83
2024-02-19T22:57:37.521Z,77.33
2024-02-19T23:00:04.293Z,76.49
2024-02-19T23:02:30.666Z,77.96
2024-02-19T23:04:57.180Z,77.01
2024-02-19T23:07:23.656Z,77.69
2024-02-19T23:09:50.120Z,78.40
2024-02-19T23:12:16.554Z,78.48
2024-02-19T23:14:42.937Z,77.60
2024-02-19T23:17:09.387Z,77.71
2024-02-19T23:19:35.849Z,77.48
2024-02-19T23:22:02.672Z,77.74
2024-02-19T23:24:29.243Z,77.98
2024-02-19T23:26:55.724Z,76.32
2024-02-19T23:29:22.248Z,75.74
2024-02-19T23:31:48.974Z,76.27
2024-02-19T23:34:15.978Z,75.87
2024-02-19T23:36:42.827Z,74.58
2024-02-19T23:39:09.383Z,75.47
2024-02-19T23:41:36.189Z,77.24
2024-02-19T23:44:02.556Z,76.15
2024-02-19T23:46:29.072Z,75.57
2024-02-19T23:48:55.542Z,75.88
2024-02-19T23:51:22.118Z,75.22
2024-02-19T23:53:48.563Z,75.38
2024-02-19T23:56:15.074Z,76.11
2024-02-19T23:58:41.646Z,76.29
